Karmel — 9HA2896 — position and weather

sailwx.info

Track history (hours):
 
Tides and Currents Weather Stations Pressure Air Temp Water Temp Dewpoint Dewpoint Depression Visibility Wind Speed Wind Dir Waves Ship Positions

Karmel

Last reported at 2016-Jul-27 09:31 UTC. Time now 2016-Jul-27 09:44 UTC.
Position N 59°53' E 030°14'.

Length 90 m; draft 3.7 m.

Type: Ship. MMSI: 256632000.

Date/timePositionNaut miles runAvg speedWind from/ knotsBaromVisibWave heightAir tempDewpointWater temp
2016-Jul-27 09:31N 59°53' E 030°14'0 0.0
2016-Jul-27 08:31N 59°53' E 030°14'0 0.0
2016-Jul-27 07:31N 59°53' E 030°14'0 0.0
2016-Jul-27 06:31N 59°53' E 030°14'0 0.0
2016-Jul-27 05:31N 59°53' E 030°14'0 0.0
2016-Jul-27 04:31N 59°53' E 030°14'0 0.0
2016-Jul-27 03:31N 59°53' E 030°14'0 0.0
2016-Jul-27 02:31N 59°53' E 030°14'0 0.0
2016-Jul-27 01:31N 59°53' E 030°14'0 0.0
2016-Jul-27 00:31N 59°53' E 030°14'0 0.0
2016-Jul-26 23:31N 59°53' E 030°14'0 0.0
2016-Jul-26 22:31N 59°53' E 030°14'0 0.0
2016-Jul-26 21:31N 59°53' E 030°14'0 0.0
2016-Jul-26 20:31N 59°53' E 030°14'0 0.0
2016-Jul-26 19:31N 59°53' E 030°14'0 0.0
2016-Jul-26 18:31N 59°53' E 030°14'0 0.0
2016-Jul-26 17:31N 59°53' E 030°14'0 0.0
2016-Jul-26 16:31N 59°53' E 030°14'0 0.0
2016-Jul-26 15:31N 59°53' E 030°14'0 0.0
2016-Jul-26 14:31N 59°53' E 030°14'0 0.0
2016-Jul-26 13:31N 59°53' E 030°14'0 0.0
2016-Jul-26 12:31N 59°53' E 030°14'0 0.0
2016-Jul-26 11:31N 59°53' E 030°14'0 0.0
2016-Jul-26 10:31N 59°53' E 030°14'0 0.0
2016-Jul-26 09:31N 59°53' E 030°14'0 0.0
2016-Jul-26 08:31N 59°53' E 030°14'0 0.0
2016-Jul-26 07:31N 59°53' E 030°14'0 0.0
2016-Jul-26 06:31N 59°53' E 030°14'0 0.0
2016-Jul-26 05:31N 59°53' E 030°14'0 0.0
2016-Jul-26 04:31N 59°53' E 030°14'0 0.0
2016-Jul-26 03:31N 59°53' E 030°14'0 0.0
2016-Jul-26 02:25N 59°53' E 030°14'0 0.0
2016-Jul-26 01:31N 59°53' E 030°14'0 0.0
2016-Jul-26 00:31N 59°53' E 030°14'0 0.0
2016-Jul-25 23:31N 59°53' E 030°14'0 0.0
2016-Jul-25 22:31N 59°53' E 030°14'0 0.0
2016-Jul-25 21:31N 59°53' E 030°14'0 0.0
2016-Jul-25 20:31N 59°53' E 030°14'0 0.0
2016-Jul-25 19:31N 59°53' E 030°14'0 0.0
2016-Jul-25 18:31N 59°53' E 030°14'0 0.0
2016-Jul-25 17:31N 59°53' E 030°14'0 0.0
2016-Jul-25 16:31N 59°53' E 030°14'2 2.0
2016-Jul-25 15:33N 59°53' E 030°10'9 8.8
2016-Jul-25 14:33N 59°57' E 029°54'1010.3
2016-Jul-25 13:32N 60°01' E 029°35'9 7.8
2016-Jul-25 12:21N 60°02' E 029°16'6 8.0
2016-Jul-25 11:33N 60°02' E 029°03'9 8.7
2016-Jul-25 10:33N 60°02' E 028°46'9 8.9
2016-Jul-25 09:33N 60°03' E 028°28'1511.1
2016-Jul-25 08:10N 60°09' E 028°00'2911.1
2016-Jul-25 05:33N 59°59' E 027°06'1211.4
2016-Jul-25 04:33N 59°59' E 026°43'1611.7
2016-Jul-25 03:08N 59°56' E 026°11'711.8
2016-Jul-25 02:33N 59°54' E 025°58'5911.6
2016-Jul-24 21:27N 59°36' E 024°05'1212.0
2016-Jul-24 20:28N 59°29' E 023°47'  
2016-Jul-21 13:30N 55°49' E 016°03'1111.7
2016-Jul-21 12:33N 55°44' E 015°45'1111.3
2016-Jul-21 11:33N 55°38' E 015°28'1111.4
2016-Jul-21 10:33N 55°33' E 015°10'1111.4
2016-Jul-21 09:33N 55°28' E 014°52'1111.4
2016-Jul-21 08:33N 55°21' E 014°36'1111.3
2016-Jul-21 07:33N 55°12' E 014°23'1110.7
2016-Jul-21 06:33N 55°10' E 014°05'1111.5
2016-Jul-21 05:33N 55°11' E 013°45'1111.4
2016-Jul-21 04:33N 55°13' E 013°25'1111.5
2016-Jul-21 03:33N 55°14' E 013°05'1111.4
2016-Jul-21 02:33N 55°16' E 012°46'9 9.1
2016-Jul-21 01:34N 55°24' E 012°39'1010.4
2016-Jul-21 00:33N 55°35' E 012°42'9 9.3
2016-Jul-20 23:33N 55°44' E 012°41'1110.5
2016-Jul-20 22:33N 55°55' E 012°39'9 9.4
2016-Jul-20 21:33N 56°04' E 012°37'1010.4
2016-Jul-20 20:33N 56°10' E 012°21'1111.2
2016-Jul-20 19:33N 56°15' E 012°04'1211.5
2016-Jul-20 18:33N 56°20' E 011°45'1111.4
2016-Jul-20 17:33N 56°25' E 011°26'1111.2
2016-Jul-20 16:33N 56°29' E 011°08'10 9.5
2016-Jul-20 15:33N 56°36' E 010°56'10 9.4
2016-Jul-20 14:29N 56°40' E 010°39'61 1.3
2016-Jul-18 16:33N 56°13' E 012°19'7 7.3
2016-Jul-18 15:33N 56°09' E 012°30'7 7.2
2016-Jul-18 14:33N 56°04' E 012°39'10 9.9
2016-Jul-18 13:34N 55°54' E 012°45'4 3.8
2016-Jul-18 12:31N 55°52' E 012°50'0 0.0
2016-Jul-18 11:31N 55°52' E 012°50'0 0.0
2016-Jul-18 10:31N 55°52' E 012°50'0 0.0
2016-Jul-18 09:31N 55°52' E 012°50'0 0.0
2016-Jul-18 08:31N 55°52' E 012°50'0 0.0
2016-Jul-18 07:31N 55°52' E 012°50'0 0.0
2016-Jul-18 06:31N 55°52' E 012°50'0 0.0
2016-Jul-18 05:31N 55°52' E 012°50'0 0.0
2016-Jul-18 04:31N 55°52' E 012°50'0 0.0
2016-Jul-18 03:31N 55°52' E 012°50'0 0.0
2016-Jul-18 02:31N 55°52' E 012°50'0 0.0
2016-Jul-18 01:31N 55°52' E 012°50'0 0.0
2016-Jul-18 00:31N 55°52' E 012°50'0 0.0
2016-Jul-17 23:31N 55°52' E 012°50'0 0.0
2016-Jul-17 22:31N 55°52' E 012°50'0 0.0
2016-Jul-17 21:31N 55°52' E 012°50'0 0.0
2016-Jul-17 20:31N 55°52' E 012°50'0 0.0
2016-Jul-17 19:31N 55°52' E 012°50'0 0.0
2016-Jul-17 18:31N 55°52' E 012°50'0 0.0
2016-Jul-17 17:31N 55°52' E 012°50'0 0.0
2016-Jul-17 16:31N 55°52' E 012°50'0 0.0
2016-Jul-17 15:31N 55°52' E 012°50'0 0.0
2016-Jul-17 14:31N 55°52' E 012°50'0 0.0
2016-Jul-17 13:31N 55°52' E 012°50'0 0.0
2016-Jul-17 12:31N 55°52' E 012°50'0 0.0
2016-Jul-17 11:31N 55°52' E 012°50'0 0.0
2016-Jul-17 10:31N 55°52' E 012°50'  
Track history (hours):
 
Tides and Currents Weather Stations Pressure Air Temp Water Temp Dewpoint Dewpoint Depression Visibility Wind Speed Wind Dir Waves Ship Positions

Karmel

Last reported at 2016-Jul-27 09:31 UTC. Time now 2016-Jul-27 09:44 UTC.
Position N 59°53' E 030°14'.

Length 90 m; draft 3.7 m.

Type: Ship. MMSI: 256632000.

Date/timePositionNaut miles runAvg speedWind from/ knotsBaromVisibWave heightAir tempDewpointWater temp
2016-Jul-27 09:31N 59°53' E 030°14'0 0.0
2016-Jul-27 08:31N 59°53' E 030°14'0 0.0
2016-Jul-27 07:31N 59°53' E 030°14'0 0.0
2016-Jul-27 06:31N 59°53' E 030°14'0 0.0
2016-Jul-27 05:31N 59°53' E 030°14'0 0.0
2016-Jul-27 04:31N 59°53' E 030°14'0 0.0
2016-Jul-27 03:31N 59°53' E 030°14'0 0.0
2016-Jul-27 02:31N 59°53' E 030°14'0 0.0
2016-Jul-27 01:31N 59°53' E 030°14'0 0.0
2016-Jul-27 00:31N 59°53' E 030°14'0 0.0
2016-Jul-26 23:31N 59°53' E 030°14'0 0.0
2016-Jul-26 22:31N 59°53' E 030°14'0 0.0
2016-Jul-26 21:31N 59°53' E 030°14'0 0.0
2016-Jul-26 20:31N 59°53' E 030°14'0 0.0
2016-Jul-26 19:31N 59°53' E 030°14'0 0.0
2016-Jul-26 18:31N 59°53' E 030°14'0 0.0
2016-Jul-26 17:31N 59°53' E 030°14'0 0.0
2016-Jul-26 16:31N 59°53' E 030°14'0 0.0
2016-Jul-26 15:31N 59°53' E 030°14'0 0.0
2016-Jul-26 14:31N 59°53' E 030°14'0 0.0
2016-Jul-26 13:31N 59°53' E 030°14'0 0.0
2016-Jul-26 12:31N 59°53' E 030°14'0 0.0
2016-Jul-26 11:31N 59°53' E 030°14'0 0.0
2016-Jul-26 10:31N 59°53' E 030°14'0 0.0
2016-Jul-26 09:31N 59°53' E 030°14'0 0.0
2016-Jul-26 08:31N 59°53' E 030°14'0 0.0
2016-Jul-26 07:31N 59°53' E 030°14'0 0.0
2016-Jul-26 06:31N 59°53' E 030°14'0 0.0
2016-Jul-26 05:31N 59°53' E 030°14'0 0.0
2016-Jul-26 04:31N 59°53' E 030°14'0 0.0
2016-Jul-26 03:31N 59°53' E 030°14'0 0.0
2016-Jul-26 02:25N 59°53' E 030°14'0 0.0
2016-Jul-26 01:31N 59°53' E 030°14'0 0.0
2016-Jul-26 00:31N 59°53' E 030°14'0 0.0
2016-Jul-25 23:31N 59°53' E 030°14'0 0.0
2016-Jul-25 22:31N 59°53' E 030°14'0 0.0
2016-Jul-25 21:31N 59°53' E 030°14'0 0.0
2016-Jul-25 20:31N 59°53' E 030°14'0 0.0
2016-Jul-25 19:31N 59°53' E 030°14'0 0.0
2016-Jul-25 18:31N 59°53' E 030°14'0 0.0
2016-Jul-25 17:31N 59°53' E 030°14'0 0.0
2016-Jul-25 16:31N 59°53' E 030°14'2 2.0
2016-Jul-25 15:33N 59°53' E 030°10'9 8.8
2016-Jul-25 14:33N 59°57' E 029°54'1010.3
2016-Jul-25 13:32N 60°01' E 029°35'9 7.8
2016-Jul-25 12:21N 60°02' E 029°16'6 8.0
2016-Jul-25 11:33N 60°02' E 029°03'9 8.7
2016-Jul-25 10:33N 60°02' E 028°46'9 8.9
2016-Jul-25 09:33N 60°03' E 028°28'1511.1
2016-Jul-25 08:10N 60°09' E 028°00'2911.1
2016-Jul-25 05:33N 59°59' E 027°06'1211.4
2016-Jul-25 04:33N 59°59' E 026°43'1611.7
2016-Jul-25 03:08N 59°56' E 026°11'711.8
2016-Jul-25 02:33N 59°54' E 025°58'5911.6
2016-Jul-24 21:27N 59°36' E 024°05'1212.0
2016-Jul-24 20:28N 59°29' E 023°47'  
2016-Jul-21 13:30N 55°49' E 016°03'1111.7
2016-Jul-21 12:33N 55°44' E 015°45'1111.3
2016-Jul-21 11:33N 55°38' E 015°28'1111.4
2016-Jul-21 10:33N 55°33' E 015°10'1111.4
2016-Jul-21 09:33N 55°28' E 014°52'1111.4
2016-Jul-21 08:33N 55°21' E 014°36'1111.3
2016-Jul-21 07:33N 55°12' E 014°23'1110.7
2016-Jul-21 06:33N 55°10' E 014°05'1111.5
2016-Jul-21 05:33N 55°11' E 013°45'1111.4
2016-Jul-21 04:33N 55°13' E 013°25'1111.5
2016-Jul-21 03:33N 55°14' E 013°05'1111.4
2016-Jul-21 02:33N 55°16' E 012°46'9 9.1
2016-Jul-21 01:34N 55°24' E 012°39'1010.4
2016-Jul-21 00:33N 55°35' E 012°42'9 9.3
2016-Jul-20 23:33N 55°44' E 012°41'1110.5
2016-Jul-20 22:33N 55°55' E 012°39'9 9.4
2016-Jul-20 21:33N 56°04' E 012°37'1010.4
2016-Jul-20 20:33N 56°10' E 012°21'1111.2
2016-Jul-20 19:33N 56°15' E 012°04'1211.5
2016-Jul-20 18:33N 56°20' E 011°45'1111.4
2016-Jul-20 17:33N 56°25' E 011°26'1111.2
2016-Jul-20 16:33N 56°29' E 011°08'10 9.5
2016-Jul-20 15:33N 56°36' E 010°56'10 9.4
2016-Jul-20 14:29N 56°40' E 010°39'61 1.3
2016-Jul-18 16:33N 56°13' E 012°19'7 7.3
2016-Jul-18 15:33N 56°09' E 012°30'7 7.2
2016-Jul-18 14:33N 56°04' E 012°39'10 9.9
2016-Jul-18 13:34N 55°54' E 012°45'4 3.8
2016-Jul-18 12:31N 55°52' E 012°50'0 0.0
2016-Jul-18 11:31N 55°52' E 012°50'0 0.0
2016-Jul-18 10:31N 55°52' E 012°50'0 0.0
2016-Jul-18 09:31N 55°52' E 012°50'0 0.0
2016-Jul-18 08:31N 55°52' E 012°50'0 0.0
2016-Jul-18 07:31N 55°52' E 012°50'0 0.0
2016-Jul-18 06:31N 55°52' E 012°50'0 0.0
2016-Jul-18 05:31N 55°52' E 012°50'0 0.0
2016-Jul-18 04:31N 55°52' E 012°50'0 0.0
2016-Jul-18 03:31N 55°52' E 012°50'0 0.0
2016-Jul-18 02:31N 55°52' E 012°50'0 0.0
2016-Jul-18 01:31N 55°52' E 012°50'0 0.0
2016-Jul-18 00:31N 55°52' E 012°50'0 0.0
2016-Jul-17 23:31N 55°52' E 012°50'0 0.0
2016-Jul-17 22:31N 55°52' E 012°50'0 0.0
2016-Jul-17 21:31N 55°52' E 012°50'0 0.0
2016-Jul-17 20:31N 55°52' E 012°50'0 0.0
2016-Jul-17 19:31N 55°52' E 012°50'0 0.0
2016-Jul-17 18:31N 55°52' E 012°50'0 0.0
2016-Jul-17 17:31N 55°52' E 012°50'0 0.0
2016-Jul-17 16:31N 55°52' E 012°50'0 0.0
2016-Jul-17 15:31N 55°52' E 012°50'0 0.0
2016-Jul-17 14:31N 55°52' E 012°50'0 0.0
2016-Jul-17 13:31N 55°52' E 012°50'0 0.0
2016-Jul-17 12:31N 55°52' E 012°50'0 0.0
2016-Jul-17 11:31N 55°52' E 012°50'0 0.0
2016-Jul-17 10:31N 55°52' E 012°50'  

Dump ship's entire track history